sensor_id;sensor_type;location;lat;lon;timestamp;P1;durP1;ratioP1;P2;durP2;ratioP2
44842;SDS011;31884;52.538;13.820;2022-10-26T00:00:25;11.23;;;6.10;;
44842;SDS011;31884;52.538;13.820;2022-10-26T00:02:52;13.30;;;5.57;;
44842;SDS011;31884;52.538;13.820;2022-10-26T00:05:18;9.20;;;5.22;;
44842;SDS011;31884;52.538;13.820;2022-10-26T00:07:44;9.95;;;5.20;;
44842;SDS011;31884;52.538;13.820;2022-10-26T00:10:10;13.15;;;5.30;;
44842;SDS011;31884;52.538;13.820;2022-10-26T00:12:35;11.13;;;5.38;;
44842;SDS011;31884;52.538;13.820;2022-10-26T00:15:01;11.52;;;6.25;;
44842;SDS011;31884;52.538;13.820;2022-10-26T00:17:26;10.93;;;5.78;;
44842;SDS011;31884;52.538;13.820;2022-10-26T00:19:52;9.05;;;5.32;;
44842;SDS011;31884;52.538;13.820;2022-10-26T00:22:17;12.15;;;5.45;;
44842;SDS011;31884;52.538;13.820;2022-10-26T00:24:43;16.42;;;5.50;;
44842;SDS011;31884;52.538;13.820;2022-10-26T00:27:08;11.05;;;4.85;;
44842;SDS011;31884;52.538;13.820;2022-10-26T00:29:33;9.27;;;6.40;;
44842;SDS011;31884;52.538;13.820;2022-10-26T00:31:59;9.00;;;5.10;;
44842;SDS011;31884;52.538;13.820;2022-10-26T00:34:24;16.65;;;5.95;;
44842;SDS011;31884;52.538;13.820;2022-10-26T00:36:50;10.75;;;6.30;;
44842;SDS011;31884;52.538;13.820;2022-10-26T00:39:15;8.23;;;5.47;;
44842;SDS011;31884;52.538;13.820;2022-10-26T00:41:41;10.60;;;5.78;;
44842;SDS011;31884;52.538;13.820;2022-10-26T00:47:31;9.18;;;4.95;;
44842;SDS011;31884;52.538;13.820;2022-10-26T00:50:06;12.75;;;5.50;;
44842;SDS011;31884;52.538;13.820;2022-10-26T00:52:35;7.88;;;4.78;;
44842;SDS011;31884;52.538;13.820;2022-10-26T00:55:02;12.05;;;5.35;;
44842;SDS011;31884;52.538;13.820;2022-10-26T00:57:29;8.82;;;5.72;;
44842;SDS011;31884;52.538;13.820;2022-10-26T00:59:55;10.65;;;5.57;;
44842;SDS011;31884;52.538;13.820;2022-10-26T01:02:21;9.38;;;4.75;;
44842;SDS011;31884;52.538;13.820;2022-10-26T01:04:47;13.65;;;6.18;;
44842;SDS011;31884;52.538;13.820;2022-10-26T01:07:13;9.43;;;5.53;;
44842;SDS011;31884;52.538;13.820;2022-10-26T01:09:39;7.95;;;5.20;;
44842;SDS011;31884;52.538;13.820;2022-10-26T01:12:05;13.70;;;5.47;;
44842;SDS011;31884;52.538;13.820;2022-10-26T01:14:31;10.93;;;5.32;;
44842;SDS011;31884;52.538;13.820;2022-10-26T01:17:02;11.27;;;5.63;;
44842;SDS011;31884;52.538;13.820;2022-10-26T01:22:25;9.23;;;4.55;;
44842;SDS011;31884;52.538;13.820;2022-10-26T01:27:37;9.02;;;4.82;;
44842;SDS011;31884;52.538;13.820;2022-10-26T01:30:10;8.48;;;4.80;;
44842;SDS011;31884;52.538;13.820;2022-10-26T01:32:46;9.75;;;5.57;;
44842;SDS011;31884;52.538;13.820;2022-10-26T01:35:31;8.55;;;4.72;;
44842;SDS011;31884;52.538;13.820;2022-10-26T01:38:03;8.80;;;5.47;;
44842;SDS011;31884;52.538;13.820;2022-10-26T01:40:42;17.65;;;6.47;;
44842;SDS011;31884;52.538;13.820;2022-10-26T01:43:13;12.20;;;5.30;;
44842;SDS011;31884;52.538;13.820;2022-10-26T01:45:41;9.25;;;5.55;;
44842;SDS011;31884;52.538;13.820;2022-10-26T01:48:09;13.13;;;6.50;;
44842;SDS011;31884;52.538;13.820;2022-10-26T01:50:39;14.82;;;5.30;;
44842;SDS011;31884;52.538;13.820;2022-10-26T01:53:10;23.90;;;6.78;;
44842;SDS011;31884;52.538;13.820;2022-10-26T01:58:09;13.77;;;5.93;;
44842;SDS011;31884;52.538;13.820;2022-10-26T02:01:04;12.77;;;5.78;;
44842;SDS011;31884;52.538;13.820;2022-10-26T02:03:37;12.45;;;5.65;;
44842;SDS011;31884;52.538;13.820;2022-10-26T02:11:57;15.55;;;6.13;;
44842;SDS011;31884;52.538;13.820;2022-10-26T02:14:32;14.20;;;6.65;;
44842;SDS011;31884;52.538;13.820;2022-10-26T02:17:10;10.00;;;5.90;;
44842;SDS011;31884;52.538;13.820;2022-10-26T02:19:42;9.55;;;5.25;;
44842;SDS011;31884;52.538;13.820;2022-10-26T02:24:42;11.35;;;5.75;;
44842;SDS011;31884;52.538;13.820;2022-10-26T02:27:11;10.27;;;5.03;;
44842;SDS011;31884;52.538;13.820;2022-10-26T02:29:40;10.05;;;4.93;;
44842;SDS011;31884;52.538;13.820;2022-10-26T02:32:07;9.93;;;5.72;;
44842;SDS011;31884;52.538;13.820;2022-10-26T02:34:34;10.88;;;6.00;;
44842;SDS011;31884;52.538;13.820;2022-10-26T02:37:03;13.05;;;5.65;;
44842;SDS011;31884;52.538;13.820;2022-10-26T02:39:29;21.60;;;7.00;;
44842;SDS011;31884;52.538;13.820;2022-10-26T02:41:59;11.07;;;5.70;;
44842;SDS011;31884;52.538;13.820;2022-10-26T02:44:28;10.45;;;4.63;;
44842;SDS011;31884;52.538;13.820;2022-10-26T02:46:56;14.20;;;6.30;;
44842;SDS011;31884;52.538;13.820;2022-10-26T02:49:22;11.05;;;5.53;;
44842;SDS011;31884;52.538;13.820;2022-10-26T02:51:49;9.48;;;4.82;;
44842;SDS011;31884;52.538;13.820;2022-10-26T02:57:22;11.68;;;5.68;;
44842;SDS011;31884;52.538;13.820;2022-10-26T03:00:06;13.20;;;5.78;;
44842;SDS011;31884;52.538;13.820;2022-10-26T03:02:36;8.32;;;4.45;;
44842;SDS011;31884;52.538;13.820;2022-10-26T03:05:06;17.13;;;4.93;;
44842;SDS011;31884;52.538;13.820;2022-10-26T03:07:43;14.15;;;5.03;;
44842;SDS011;31884;52.538;13.820;2022-10-26T03:10:09;12.07;;;5.47;;
44842;SDS011;31884;52.538;13.820;2022-10-26T03:12:35;14.90;;;6.43;;
44842;SDS011;31884;52.538;13.820;2022-10-26T03:15:00;13.98;;;6.13;;
44842;SDS011;31884;52.538;13.820;2022-10-26T03:17:26;13.80;;;5.13;;
44842;SDS011;31884;52.538;13.820;2022-10-26T03:19:52;14.77;;;5.57;;
44842;SDS011;31884;52.538;13.820;2022-10-26T03:22:18;13.25;;;6.65;;
44842;SDS011;31884;52.538;13.820;2022-10-26T03:24:44;9.55;;;5.47;;
44842;SDS011;31884;52.538;13.820;2022-10-26T03:27:10;12.07;;;5.75;;
44842;SDS011;31884;52.538;13.820;2022-10-26T03:29:35;11.98;;;5.32;;
44842;SDS011;31884;52.538;13.820;2022-10-26T03:32:00;12.05;;;5.47;;
44842;SDS011;31884;52.538;13.820;2022-10-26T03:34:26;11.90;;;5.72;;
44842;SDS011;31884;52.538;13.820;2022-10-26T03:36:51;13.55;;;6.60;;
44842;SDS011;31884;52.538;13.820;2022-10-26T03:39:17;8.77;;;4.88;;
44842;SDS011;31884;52.538;13.820;2022-10-26T03:41:42;11.65;;;4.82;;
44842;SDS011;31884;52.538;13.820;2022-10-26T03:44:08;9.57;;;5.78;;
44842;SDS011;31884;52.538;13.820;2022-10-26T03:46:33;12.25;;;6.03;;
44842;SDS011;31884;52.538;13.820;2022-10-26T03:48:59;13.48;;;5.88;;
44842;SDS011;31884;52.538;13.820;2022-10-26T03:51:24;12.68;;;6.03;;
44842;SDS011;31884;52.538;13.820;2022-10-26T03:53:50;9.70;;;4.70;;
44842;SDS011;31884;52.538;13.820;2022-10-26T03:56:15;9.40;;;5.53;;
44842;SDS011;31884;52.538;13.820;2022-10-26T03:58:41;12.15;;;5.68;;
44842;SDS011;31884;52.538;13.820;2022-10-26T04:01:06;10.80;;;5.38;;
44842;SDS011;31884;52.538;13.820;2022-10-26T04:03:32;13.35;;;6.60;;
44842;SDS011;31884;52.538;13.820;2022-10-26T04:06:00;8.95;;;5.43;;
44842;SDS011;31884;52.538;13.820;2022-10-26T04:08:27;10.98;;;5.88;;
44842;SDS011;31884;52.538;13.820;2022-10-26T04:10:52;11.60;;;5.75;;
44842;SDS011;31884;52.538;13.820;2022-10-26T04:13:18;10.13;;;5.95;;
44842;SDS011;31884;52.538;13.820;2022-10-26T04:15:43;14.45;;;6.97;;
44842;SDS011;31884;52.538;13.820;2022-10-26T04:18:09;24.77;;;6.78;;
44842;SDS011;31884;52.538;13.820;2022-10-26T04:20:36;27.00;;;7.28;;
44842;SDS011;31884;52.538;13.820;2022-10-26T04:23:03;20.90;;;8.23;;
44842;SDS011;31884;52.538;13.820;2022-10-26T04:25:30;25.75;;;8.32;;
44842;SDS011;31884;52.538;13.820;2022-10-26T04:27:57;18.15;;;7.13;;
44842;SDS011;31884;52.538;13.820;2022-10-26T04:30:23;25.55;;;6.65;;
44842;SDS011;31884;52.538;13.820;2022-10-26T04:32:48;30.08;;;6.70;;
44842;SDS011;31884;52.538;13.820;2022-10-26T04:35:14;30.73;;;7.53;;
44842;SDS011;31884;52.538;13.820;2022-10-26T04:37:39;27.02;;;6.82;;
44842;SDS011;31884;52.538;13.820;2022-10-26T04:40:05;24.15;;;6.20;;
44842;SDS011;31884;52.538;13.820;2022-10-26T04:42:31;21.52;;;5.85;;
44842;SDS011;31884;52.538;13.820;2022-10-26T04:45:08;33.10;;;7.53;;
44842;SDS011;31884;52.538;13.820;2022-10-26T04:47:34;32.30;;;6.30;;
44842;SDS011;31884;52.538;13.820;2022-10-26T04:50:00;31.17;;;6.13;;
44842;SDS011;31884;52.538;13.820;2022-10-26T04:52:25;25.25;;;5.78;;
44842;SDS011;31884;52.538;13.820;2022-10-26T04:54:51;11.70;;;5.28;;
44842;SDS011;31884;52.538;13.820;2022-10-26T04:57:16;15.52;;;4.45;;
44842;SDS011;31884;52.538;13.820;2022-10-26T04:59:42;10.10;;;4.78;;
44842;SDS011;31884;52.538;13.820;2022-10-26T05:02:07;14.18;;;5.22;;
44842;SDS011;31884;52.538;13.820;2022-10-26T05:04:33;13.65;;;4.60;;
44842;SDS011;31884;52.538;13.820;2022-10-26T05:06:58;17.23;;;4.70;;
44842;SDS011;31884;52.538;13.820;2022-10-26T05:09:24;18.90;;;4.80;;
44842;SDS011;31884;52.538;13.820;2022-10-26T05:11:49;12.32;;;4.72;;
44842;SDS011;31884;52.538;13.820;2022-10-26T05:14:14;13.05;;;5.50;;
44842;SDS011;31884;52.538;13.820;2022-10-26T05:16:40;18.10;;;5.50;;
44842;SDS011;31884;52.538;13.820;2022-10-26T05:19:05;18.23;;;5.93;;
44842;SDS011;31884;52.538;13.820;2022-10-26T05:21:31;18.95;;;7.03;;
44842;SDS011;31884;52.538;13.820;2022-10-26T05:23:56;20.38;;;6.15;;
44842;SDS011;31884;52.538;13.820;2022-10-26T05:26:22;12.30;;;5.07;;
44842;SDS011;31884;52.538;13.820;2022-10-26T05:28:48;23.98;;;6.93;;
44842;SDS011;31884;52.538;13.820;2022-10-26T05:31:15;15.98;;;5.13;;
44842;SDS011;31884;52.538;13.820;2022-10-26T05:33:40;17.30;;;6.07;;
44842;SDS011;31884;52.538;13.820;2022-10-26T05:36:06;15.10;;;5.53;;
44842;SDS011;31884;52.538;13.820;2022-10-26T05:38:32;15.30;;;5.70;;
44842;SDS011;31884;52.538;13.820;2022-10-26T05:40:57;12.40;;;5.30;;
44842;SDS011;31884;52.538;13.820;2022-10-26T05:43:26;18.42;;;6.75;;
44842;SDS011;31884;52.538;13.820;2022-10-26T05:45:52;22.10;;;6.00;;
44842;SDS011;31884;52.538;13.820;2022-10-26T05:48:18;10.35;;;4.50;;
44842;SDS011;31884;52.538;13.820;2022-10-26T05:50:44;12.70;;;5.22;;
44842;SDS011;31884;52.538;13.820;2022-10-26T05:53:10;13.63;;;6.15;;
44842;SDS011;31884;52.538;13.820;2022-10-26T05:55:36;24.63;;;6.00;;
44842;SDS011;31884;52.538;13.820;2022-10-26T05:58:02;12.95;;;4.93;;
44842;SDS011;31884;52.538;13.820;2022-10-26T06:00:28;7.35;;;4.22;;
44842;SDS011;31884;52.538;13.820;2022-10-26T06:03:06;12.38;;;5.88;;
44842;SDS011;31884;52.538;13.820;2022-10-26T06:05:51;12.40;;;5.43;;
44842;SDS011;31884;52.538;13.820;2022-10-26T06:08:19;22.75;;;5.82;;
44842;SDS011;31884;52.538;13.820;2022-10-26T06:10:46;12.75;;;5.65;;
44842;SDS011;31884;52.538;13.820;2022-10-26T06:13:12;12.90;;;5.60;;
44842;SDS011;31884;52.538;13.820;2022-10-26T06:15:44;10.50;;;4.38;;
44842;SDS011;31884;52.538;13.820;2022-10-26T06:23:54;5.45;;;3.35;;
44842;SDS011;31884;52.538;13.820;2022-10-26T06:29:22;6.57;;;3.17;;
44842;SDS011;31884;52.538;13.820;2022-10-26T06:32:01;8.38;;;3.58;;
44842;SDS011;31884;52.538;13.820;2022-10-26T06:34:28;5.47;;;3.35;;
44842;SDS011;31884;52.538;13.820;2022-10-26T06:36:58;8.50;;;4.53;;
44842;SDS011;31884;52.538;13.820;2022-10-26T06:39:26;12.98;;;6.70;;
44842;SDS011;31884;52.538;13.820;2022-10-26T06:41:55;10.52;;;6.75;;
44842;SDS011;31884;52.538;13.820;2022-10-26T06:44:22;11.60;;;6.00;;
44842;SDS011;31884;52.538;13.820;2022-10-26T06:47:08;11.63;;;6.30;;
44842;SDS011;31884;52.538;13.820;2022-10-26T06:50:01;11.68;;;6.38;;
44842;SDS011;31884;52.538;13.820;2022-10-26T06:52:40;13.63;;;6.50;;
44842;SDS011;31884;52.538;13.820;2022-10-26T06:55:13;10.85;;;5.47;;
44842;SDS011;31884;52.538;13.820;2022-10-26T06:57:40;8.52;;;5.10;;
44842;SDS011;31884;52.538;13.820;2022-10-26T07:00:28;9.30;;;5.53;;
44842;SDS011;31884;52.538;13.820;2022-10-26T07:02:53;8.88;;;5.15;;
44842;SDS011;31884;52.538;13.820;2022-10-26T07:05:19;8.05;;;5.47;;
44842;SDS011;31884;52.538;13.820;2022-10-26T07:07:45;8.45;;;4.88;;
44842;SDS011;31884;52.538;13.820;2022-10-26T07:10:11;7.82;;;3.67;;
44842;SDS011;31884;52.538;13.820;2022-10-26T07:12:38;5.05;;;3.65;;
44842;SDS011;31884;52.538;13.820;2022-10-26T07:15:04;5.68;;;3.42;;
44842;SDS011;31884;52.538;13.820;2022-10-26T07:17:30;5.75;;;3.42;;
44842;SDS011;31884;52.538;13.820;2022-10-26T07:19:56;4.38;;;3.03;;
44842;SDS011;31884;52.538;13.820;2022-10-26T07:22:22;4.30;;;3.33;;
44842;SDS011;31884;52.538;13.820;2022-10-26T07:24:47;4.28;;;3.63;;
44842;SDS011;31884;52.538;13.820;2022-10-26T07:27:15;4.45;;;3.30;;
44842;SDS011;31884;52.538;13.820;2022-10-26T07:29:41;3.80;;;3.17;;
44842;SDS011;31884;52.538;13.820;2022-10-26T07:32:06;4.45;;;2.58;;
44842;SDS011;31884;52.538;13.820;2022-10-26T07:34:32;4.05;;;2.70;;
44842;SDS011;31884;52.538;13.820;2022-10-26T07:36:58;3.45;;;2.75;;
44842;SDS011;31884;52.538;13.820;2022-10-26T07:39:24;3.45;;;2.83;;
44842;SDS011;31884;52.538;13.820;2022-10-26T07:41:49;3.70;;;2.60;;
44842;SDS011;31884;52.538;13.820;2022-10-26T07:44:15;5.07;;;2.83;;
44842;SDS011;31884;52.538;13.820;2022-10-26T07:46:41;3.25;;;2.85;;
44842;SDS011;31884;52.538;13.820;2022-10-26T07:49:06;3.85;;;2.65;;
44842;SDS011;31884;52.538;13.820;2022-10-26T07:51:32;4.22;;;2.92;;
44842;SDS011;31884;52.538;13.820;2022-10-26T07:53:57;5.32;;;3.58;;
44842;SDS011;31884;52.538;13.820;2022-10-26T07:56:22;4.93;;;2.90;;
44842;SDS011;31884;52.538;13.820;2022-10-26T07:58:50;3.95;;;2.70;;
44842;SDS011;31884;52.538;13.820;2022-10-26T08:01:16;8.75;;;2.88;;
44842;SDS011;31884;52.538;13.820;2022-10-26T08:03:42;7.15;;;3.03;;
44842;SDS011;31884;52.538;13.820;2022-10-26T08:06:07;3.72;;;3.08;;
44842;SDS011;31884;52.538;13.820;2022-10-26T08:08:34;3.78;;;2.72;;
44842;SDS011;31884;52.538;13.820;2022-10-26T08:11:00;5.50;;;3.42;;
44842;SDS011;31884;52.538;13.820;2022-10-26T08:13:26;10.40;;;3.60;;
44842;SDS011;31884;52.538;13.820;2022-10-26T08:16:01;6.63;;;3.55;;
44842;SDS011;31884;52.538;13.820;2022-10-26T08:18:29;4.00;;;3.13;;
44842;SDS011;31884;52.538;13.820;2022-10-26T08:20:54;7.03;;;3.40;;
44842;SDS011;31884;52.538;13.820;2022-10-26T08:23:25;8.25;;;4.05;;
44842;SDS011;31884;52.538;13.820;2022-10-26T08:25:50;7.38;;;4.13;;
44842;SDS011;31884;52.538;13.820;2022-10-26T08:28:16;5.07;;;3.00;;
44842;SDS011;31884;52.538;13.820;2022-10-26T08:30:41;6.30;;;3.42;;
44842;SDS011;31884;52.538;13.820;2022-10-26T08:33:07;10.23;;;3.83;;
44842;SDS011;31884;52.538;13.820;2022-10-26T08:35:34;5.80;;;3.67;;
44842;SDS011;31884;52.538;13.820;2022-10-26T08:37:59;5.20;;;3.42;;
44842;SDS011;31884;52.538;13.820;2022-10-26T08:40:26;7.90;;;3.95;;
44842;SDS011;31884;52.538;13.820;2022-10-26T08:43:02;8.68;;;4.38;;
44842;SDS011;31884;52.538;13.820;2022-10-26T08:45:38;3.97;;;3.30;;
44842;SDS011;31884;52.538;13.820;2022-10-26T08:48:11;7.75;;;3.97;;
44842;SDS011;31884;52.538;13.820;2022-10-26T08:50:46;4.55;;;4.00;;
44842;SDS011;31884;52.538;13.820;2022-10-26T08:55:55;4.93;;;3.78;;
44842;SDS011;31884;52.538;13.820;2022-10-26T08:58:39;4.47;;;3.95;;
44842;SDS011;31884;52.538;13.820;2022-10-26T09:01:10;6.78;;;3.92;;
44842;SDS011;31884;52.538;13.820;2022-10-26T09:03:36;4.57;;;2.88;;
44842;SDS011;31884;52.538;13.820;2022-10-26T09:06:14;8.13;;;4.10;;
44842;SDS011;31884;52.538;13.820;2022-10-26T09:22:44;6.90;;;4.15;;
44842;SDS011;31884;52.538;13.820;2022-10-26T09:25:35;6.00;;;4.65;;
44842;SDS011;31884;52.538;13.820;2022-10-26T09:28:04;7.57;;;4.35;;
44842;SDS011;31884;52.538;13.820;2022-10-26T09:30:32;9.07;;;5.85;;
44842;SDS011;31884;52.538;13.820;2022-10-26T09:33:01;5.57;;;3.92;;
44842;SDS011;31884;52.538;13.820;2022-10-26T09:35:43;5.10;;;3.60;;
44842;SDS011;31884;52.538;13.820;2022-10-26T09:38:33;8.75;;;4.82;;
44842;SDS011;31884;52.538;13.820;2022-10-26T09:41:12;7.13;;;4.25;;
44842;SDS011;31884;52.538;13.820;2022-10-26T09:43:54;5.90;;;3.78;;
44842;SDS011;31884;52.538;13.820;2022-10-26T09:46:28;5.32;;;3.72;;
44842;SDS011;31884;52.538;13.820;2022-10-26T09:48:58;7.40;;;3.88;;
44842;SDS011;31884;52.538;13.820;2022-10-26T09:51:29;7.05;;;3.67;;
44842;SDS011;31884;52.538;13.820;2022-10-26T09:53:57;5.18;;;3.45;;
44842;SDS011;31884;52.538;13.820;2022-10-26T09:56:25;8.05;;;3.53;;
44842;SDS011;31884;52.538;13.820;2022-10-26T09:58:54;6.20;;;3.90;;
44842;SDS011;31884;52.538;13.820;2022-10-26T10:04:07;7.38;;;4.10;;
44842;SDS011;31884;52.538;13.820;2022-10-26T10:07:11;5.75;;;3.88;;
44842;SDS011;31884;52.538;13.820;2022-10-26T10:09:37;4.28;;;3.22;;
44842;SDS011;31884;52.538;13.820;2022-10-26T10:12:03;5.63;;;3.35;;
44842;SDS011;31884;52.538;13.820;2022-10-26T10:14:30;12.30;;;4.25;;
44842;SDS011;31884;52.538;13.820;2022-10-26T10:17:04;5.05;;;3.50;;
44842;SDS011;31884;52.538;13.820;2022-10-26T10:19:33;5.68;;;2.83;;
44842;SDS011;31884;52.538;13.820;2022-10-26T10:22:00;5.75;;;3.03;;
44842;SDS011;31884;52.538;13.820;2022-10-26T10:24:33;6.22;;;3.83;;
44842;SDS011;31884;52.538;13.820;2022-10-26T10:27:07;5.55;;;2.65;;
44842;SDS011;31884;52.538;13.820;2022-10-26T10:29:42;5.20;;;2.30;;
44842;SDS011;31884;52.538;13.820;2022-10-26T10:32:16;5.60;;;2.50;;
44842;SDS011;31884;52.538;13.820;2022-10-26T10:34:46;5.38;;;2.95;;
44842;SDS011;31884;52.538;13.820;2022-10-26T10:40:13;10.18;;;3.50;;
44842;SDS011;31884;52.538;13.820;2022-10-26T10:42:43;7.20;;;2.90;;
44842;SDS011;31884;52.538;13.820;2022-10-26T10:45:21;4.38;;;2.65;;
44842;SDS011;31884;52.538;13.820;2022-10-26T10:48:02;8.95;;;3.00;;
44842;SDS011;31884;52.538;13.820;2022-10-26T10:50:29;3.15;;;2.42;;
44842;SDS011;31884;52.538;13.820;2022-10-26T11:01:30;4.40;;;2.65;;
44842;SDS011;31884;52.538;13.820;2022-10-26T11:06:40;4.40;;;2.10;;
44842;SDS011;31884;52.538;13.820;2022-10-26T11:09:08;5.90;;;2.05;;
44842;SDS011;31884;52.538;13.820;2022-10-26T11:11:52;4.57;;;2.63;;
44842;SDS011;31884;52.538;13.820;2022-10-26T11:14:23;5.20;;;2.63;;
44842;SDS011;31884;52.538;13.820;2022-10-26T11:17:13;8.23;;;2.15;;
44842;SDS011;31884;52.538;13.820;2022-10-26T11:19:48;3.60;;;1.80;;
44842;SDS011;31884;52.538;13.820;2022-10-26T11:22:18;5.82;;;2.30;;
44842;SDS011;31884;52.538;13.820;2022-10-26T11:24:48;4.57;;;1.60;;
44842;SDS011;31884;52.538;13.820;2022-10-26T11:27:24;3.05;;;1.40;;
44842;SDS011;31884;52.538;13.820;2022-10-26T11:33:03;4.63;;;1.52;;
44842;SDS011;31884;52.538;13.820;2022-10-26T11:38:14;4.28;;;1.70;;
44842;SDS011;31884;52.538;13.820;2022-10-26T11:46:04;2.95;;;1.55;;
44842;SDS011;31884;52.538;13.820;2022-10-26T11:48:53;3.22;;;1.30;;
44842;SDS011;31884;52.538;13.820;2022-10-26T11:54:20;5.22;;;1.52;;
44842;SDS011;31884;52.538;13.820;2022-10-26T11:56:50;4.20;;;1.52;;
44842;SDS011;31884;52.538;13.820;2022-10-26T11:59:19;2.20;;;1.30;;
44842;SDS011;31884;52.538;13.820;2022-10-26T12:01:48;1.83;;;0.95;;
44842;SDS011;31884;52.538;13.820;2022-10-26T12:04:17;7.38;;;1.90;;
44842;SDS011;31884;52.538;13.820;2022-10-26T12:06:46;2.28;;;1.30;;
44842;SDS011;31884;52.538;13.820;2022-10-26T12:09:15;3.20;;;1.33;;
44842;SDS011;31884;52.538;13.820;2022-10-26T12:11:45;3.72;;;1.77;;
44842;SDS011;31884;52.538;13.820;2022-10-26T12:14:20;5.10;;;1.65;;
44842;SDS011;31884;52.538;13.820;2022-10-26T12:16:56;3.08;;;1.35;;
44842;SDS011;31884;52.538;13.820;2022-10-26T12:19:52;3.08;;;1.45;;
44842;SDS011;31884;52.538;13.820;2022-10-26T12:22:28;2.60;;;1.00;;
44842;SDS011;31884;52.538;13.820;2022-10-26T12:38:02;4.13;;;1.60;;
44842;SDS011;31884;52.538;13.820;2022-10-26T12:43:35;2.88;;;1.50;;
44842;SDS011;31884;52.538;13.820;2022-10-26T12:48:41;2.38;;;1.33;;
44842;SDS011;31884;52.538;13.820;2022-10-26T12:56:49;1.40;;;1.10;;
44842;SDS011;31884;52.538;13.820;2022-10-26T13:01:53;2.67;;;1.50;;
44842;SDS011;31884;52.538;13.820;2022-10-26T13:04:40;3.05;;;1.40;;
44842;SDS011;31884;52.538;13.820;2022-10-26T13:07:15;2.75;;;1.00;;
44842;SDS011;31884;52.538;13.820;2022-10-26T13:09:44;2.10;;;1.23;;
44842;SDS011;31884;52.538;13.820;2022-10-26T13:12:19;3.97;;;0.93;;
44842;SDS011;31884;52.538;13.820;2022-10-26T13:14:55;1.05;;;0.80;;
44842;SDS011;31884;52.538;13.820;2022-10-26T13:17:26;4.47;;;1.00;;
44842;SDS011;31884;52.538;13.820;2022-10-26T13:19:59;3.38;;;0.90;;
44842;SDS011;31884;52.538;13.820;2022-10-26T13:22:27;1.05;;;0.90;;
44842;SDS011;31884;52.538;13.820;2022-10-26T13:24:54;2.08;;;1.00;;
44842;SDS011;31884;52.538;13.820;2022-10-26T13:30:11;4.93;;;0.90;;
44842;SDS011;31884;52.538;13.820;2022-10-26T13:32:47;1.25;;;0.80;;
44842;SDS011;31884;52.538;13.820;2022-10-26T13:35:16;1.52;;;0.90;;
44842;SDS011;31884;52.538;13.820;2022-10-26T13:37:44;2.47;;;1.05;;
44842;SDS011;31884;52.538;13.820;2022-10-26T13:40:15;5.15;;;1.25;;
44842;SDS011;31884;52.538;13.820;2022-10-26T13:42:44;2.10;;;1.10;;
44842;SDS011;31884;52.538;13.820;2022-10-26T13:45:36;1.95;;;1.13;;
44842;SDS011;31884;52.538;13.820;2022-10-26T13:51:01;1.83;;;1.27;;
44842;SDS011;31884;52.538;13.820;2022-10-26T13:53:40;2.70;;;1.10;;
44842;SDS011;31884;52.538;13.820;2022-10-26T13:58:50;1.52;;;1.05;;
44842;SDS011;31884;52.538;13.820;2022-10-26T14:01:23;2.33;;;1.00;;
44842;SDS011;31884;52.538;13.820;2022-10-26T14:03:50;1.25;;;0.93;;
44842;SDS011;31884;52.538;13.820;2022-10-26T14:06:17;2.50;;;0.93;;
44842;SDS011;31884;52.538;13.820;2022-10-26T14:08:48;1.83;;;1.02;;
44842;SDS011;31884;52.538;13.820;2022-10-26T14:11:17;3.55;;;1.13;;
44842;SDS011;31884;52.538;13.820;2022-10-26T14:13:46;2.97;;;1.13;;
44842;SDS011;31884;52.538;13.820;2022-10-26T14:16:14;4.25;;;1.10;;
44842;SDS011;31884;52.538;13.820;2022-10-26T14:18:43;3.10;;;0.98;;
44842;SDS011;31884;52.538;13.820;2022-10-26T14:21:12;0.95;;;0.70;;
44842;SDS011;31884;52.538;13.820;2022-10-26T14:23:47;1.83;;;1.10;;
44842;SDS011;31884;52.538;13.820;2022-10-26T14:29:15;3.05;;;1.20;;
44842;SDS011;31884;52.538;13.820;2022-10-26T14:31:42;1.17;;;0.90;;
44842;SDS011;31884;52.538;13.820;2022-10-26T14:34:08;0.88;;;0.80;;
44842;SDS011;31884;52.538;13.820;2022-10-26T14:36:38;3.00;;;1.10;;
44842;SDS011;31884;52.538;13.820;2022-10-26T14:39:14;2.58;;;1.13;;
44842;SDS011;31884;52.538;13.820;2022-10-26T14:41:54;1.02;;;0.70;;
44842;SDS011;31884;52.538;13.820;2022-10-26T14:44:22;1.65;;;0.90;;
44842;SDS011;31884;52.538;13.820;2022-10-26T14:46:49;2.63;;;0.98;;
44842;SDS011;31884;52.538;13.820;2022-10-26T14:49:16;3.03;;;0.93;;
44842;SDS011;31884;52.538;13.820;2022-10-26T14:51:45;1.77;;;0.63;;
44842;SDS011;31884;52.538;13.820;2022-10-26T14:54:20;3.88;;;0.95;;
44842;SDS011;31884;52.538;13.820;2022-10-26T14:56:48;1.88;;;0.82;;
44842;SDS011;31884;52.538;13.820;2022-10-26T14:59:24;1.27;;;0.68;;
44842;SDS011;31884;52.538;13.820;2022-10-26T15:02:03;2.05;;;0.75;;
44842;SDS011;31884;52.538;13.820;2022-10-26T15:04:40;2.67;;;0.90;;
44842;SDS011;31884;52.538;13.820;2022-10-26T15:07:20;2.80;;;0.90;;
44842;SDS011;31884;52.538;13.820;2022-10-26T15:12:36;3.67;;;1.30;;
44842;SDS011;31884;52.538;13.820;2022-10-26T15:17:50;3.25;;;1.15;;
44842;SDS011;31884;52.538;13.820;2022-10-26T15:20:23;4.38;;;0.85;;
44842;SDS011;31884;52.538;13.820;2022-10-26T15:22:50;1.40;;;0.98;;
44842;SDS011;31884;52.538;13.820;2022-10-26T15:25:21;3.63;;;0.98;;
44842;SDS011;31884;52.538;13.820;2022-10-26T15:27:48;4.50;;;1.38;;
44842;SDS011;31884;52.538;13.820;2022-10-26T15:30:20;6.32;;;1.42;;
44842;SDS011;31884;52.538;13.820;2022-10-26T15:32:50;2.13;;;1.33;;
44842;SDS011;31884;52.538;13.820;2022-10-26T15:37:42;2.05;;;1.27;;
44842;SDS011;31884;52.538;13.820;2022-10-26T15:40:08;4.68;;;1.80;;
44842;SDS011;31884;52.538;13.820;2022-10-26T15:42:34;4.60;;;1.60;;
44842;SDS011;31884;52.538;13.820;2022-10-26T15:45:02;5.97;;;1.88;;
44842;SDS011;31884;52.538;13.820;2022-10-26T15:47:31;1.60;;;1.23;;
44842;SDS011;31884;52.538;13.820;2022-10-26T15:49:58;1.98;;;1.17;;
44842;SDS011;31884;52.538;13.820;2022-10-26T15:52:23;2.30;;;1.35;;
44842;SDS011;31884;52.538;13.820;2022-10-26T15:54:49;2.42;;;1.35;;
44842;SDS011;31884;52.538;13.820;2022-10-26T15:57:14;3.95;;;1.48;;
44842;SDS011;31884;52.538;13.820;2022-10-26T15:59:40;5.45;;;2.55;;
44842;SDS011;31884;52.538;13.820;2022-10-26T16:02:13;8.65;;;4.43;;
44842;SDS011;31884;52.538;13.820;2022-10-26T16:04:39;9.52;;;3.42;;
44842;SDS011;31884;52.538;13.820;2022-10-26T16:07:04;5.47;;;3.25;;
44842;SDS011;31884;52.538;13.820;2022-10-26T16:09:35;8.80;;;3.42;;
44842;SDS011;31884;52.538;13.820;2022-10-26T16:12:01;8.07;;;3.17;;
44842;SDS011;31884;52.538;13.820;2022-10-26T16:14:26;3.95;;;2.28;;
44842;SDS011;31884;52.538;13.820;2022-10-26T16:16:52;4.97;;;2.35;;
44842;SDS011;31884;52.538;13.820;2022-10-26T16:19:17;6.72;;;2.28;;
44842;SDS011;31884;52.538;13.820;2022-10-26T16:21:42;5.18;;;2.55;;
44842;SDS011;31884;52.538;13.820;2022-10-26T16:24:08;3.08;;;1.98;;
44842;SDS011;31884;52.538;13.820;2022-10-26T16:26:34;7.53;;;2.17;;
44842;SDS011;31884;52.538;13.820;2022-10-26T16:29:00;3.30;;;2.33;;
44842;SDS011;31884;52.538;13.820;2022-10-26T16:31:25;4.90;;;1.88;;
44842;SDS011;31884;52.538;13.820;2022-10-26T16:33:50;6.70;;;2.20;;
44842;SDS011;31884;52.538;13.820;2022-10-26T16:36:16;4.88;;;1.85;;
44842;SDS011;31884;52.538;13.820;2022-10-26T16:38:41;6.50;;;1.83;;
44842;SDS011;31884;52.538;13.820;2022-10-26T16:41:08;4.00;;;2.08;;
44842;SDS011;31884;52.538;13.820;2022-10-26T16:43:36;4.32;;;1.92;;
44842;SDS011;31884;52.538;13.820;2022-10-26T16:46:04;5.72;;;2.28;;
44842;SDS011;31884;52.538;13.820;2022-10-26T16:51:16;5.03;;;1.70;;